sensor_id;sensor_type;location;lat;lon;timestamp;P1;durP1;ratioP1;P2;durP2;ratioP2
75261;SDS011;63859;51.064;4.580;2024-02-28T00:01:47;20.10;;;11.90;;
75261;SDS011;63859;51.064;4.580;2024-02-28T00:04:16;21.60;;;12.53;;
75261;SDS011;63859;51.064;4.580;2024-02-28T00:06:42;17.90;;;11.57;;
75261;SDS011;63859;51.064;4.580;2024-02-28T00:09:10;20.27;;;11.70;;
75261;SDS011;63859;51.064;4.580;2024-02-28T00:11:42;21.87;;;13.03;;
75261;SDS011;63859;51.064;4.580;2024-02-28T00:14:09;21.67;;;12.50;;
75261;SDS011;63859;51.064;4.580;2024-02-28T00:16:35;20.37;;;12.50;;
75261;SDS011;63859;51.064;4.580;2024-02-28T00:19:01;21.30;;;12.17;;
75261;SDS011;63859;51.064;4.580;2024-02-28T00:21:27;19.47;;;11.53;;
75261;SDS011;63859;51.064;4.580;2024-02-28T00:23:52;20.87;;;11.97;;
75261;SDS011;63859;51.064;4.580;2024-02-28T00:26:18;20.60;;;12.77;;
75261;SDS011;63859;51.064;4.580;2024-02-28T00:28:44;21.37;;;12.47;;
75261;SDS011;63859;51.064;4.580;2024-02-28T00:31:09;21.90;;;12.17;;
75261;SDS011;63859;51.064;4.580;2024-02-28T00:33:35;23.57;;;12.90;;
75261;SDS011;63859;51.064;4.580;2024-02-28T00:36:01;24.03;;;12.43;;
75261;SDS011;63859;51.064;4.580;2024-02-28T00:38:26;22.27;;;11.97;;
75261;SDS011;63859;51.064;4.580;2024-02-28T00:40:52;22.93;;;12.53;;
75261;SDS011;63859;51.064;4.580;2024-02-28T00:43:18;22.60;;;13.13;;
75261;SDS011;63859;51.064;4.580;2024-02-28T00:45:44;21.13;;;13.27;;
75261;SDS011;63859;51.064;4.580;2024-02-28T00:48:09;20.57;;;12.87;;
75261;SDS011;63859;51.064;4.580;2024-02-28T00:50:35;26.80;;;13.47;;
75261;SDS011;63859;51.064;4.580;2024-02-28T00:53:00;25.43;;;13.83;;
75261;SDS011;63859;51.064;4.580;2024-02-28T00:55:27;26.97;;;13.87;;
75261;SDS011;63859;51.064;4.580;2024-02-28T00:57:52;24.00;;;15.00;;
75261;SDS011;63859;51.064;4.580;2024-02-28T01:00:18;27.60;;;15.10;;
75261;SDS011;63859;51.064;4.580;2024-02-28T01:02:44;26.40;;;14.73;;
75261;SDS011;63859;51.064;4.580;2024-02-28T01:05:09;25.13;;;14.97;;
75261;SDS011;63859;51.064;4.580;2024-02-28T01:07:35;25.83;;;14.67;;
75261;SDS011;63859;51.064;4.580;2024-02-28T01:10:01;24.77;;;14.33;;
75261;SDS011;63859;51.064;4.580;2024-02-28T01:12:27;23.60;;;14.50;;
75261;SDS011;63859;51.064;4.580;2024-02-28T01:14:53;25.37;;;14.93;;
75261;SDS011;63859;51.064;4.580;2024-02-28T01:17:19;23.83;;;15.27;;
75261;SDS011;63859;51.064;4.580;2024-02-28T01:19:44;30.33;;;14.93;;
75261;SDS011;63859;51.064;4.580;2024-02-28T01:22:10;25.20;;;14.63;;
75261;SDS011;63859;51.064;4.580;2024-02-28T01:24:36;28.17;;;15.13;;
75261;SDS011;63859;51.064;4.580;2024-02-28T01:27:02;25.63;;;15.77;;
75261;SDS011;63859;51.064;4.580;2024-02-28T01:29:28;25.67;;;15.50;;
75261;SDS011;63859;51.064;4.580;2024-02-28T01:31:55;27.70;;;15.97;;
75261;SDS011;63859;51.064;4.580;2024-02-28T01:34:21;26.30;;;15.50;;
75261;SDS011;63859;51.064;4.580;2024-02-28T01:36:46;26.37;;;15.67;;
75261;SDS011;63859;51.064;4.580;2024-02-28T01:39:12;27.67;;;15.87;;
75261;SDS011;63859;51.064;4.580;2024-02-28T01:41:38;28.77;;;15.07;;
75261;SDS011;63859;51.064;4.580;2024-02-28T01:44:04;27.50;;;16.23;;
75261;SDS011;63859;51.064;4.580;2024-02-28T01:46:29;28.40;;;16.17;;
75261;SDS011;63859;51.064;4.580;2024-02-28T01:48:56;30.83;;;17.27;;
75261;SDS011;63859;51.064;4.580;2024-02-28T01:51:23;27.20;;;16.07;;
75261;SDS011;63859;51.064;4.580;2024-02-28T01:53:51;31.10;;;16.73;;
75261;SDS011;63859;51.064;4.580;2024-02-28T01:56:18;25.50;;;15.37;;
75261;SDS011;63859;51.064;4.580;2024-02-28T01:58:49;28.83;;;15.23;;
75261;SDS011;63859;51.064;4.580;2024-02-28T02:01:15;32.10;;;16.03;;
75261;SDS011;63859;51.064;4.580;2024-02-28T02:03:42;28.90;;;15.80;;
75261;SDS011;63859;51.064;4.580;2024-02-28T02:06:09;28.07;;;14.80;;
75261;SDS011;63859;51.064;4.580;2024-02-28T02:08:36;32.63;;;16.37;;
75261;SDS011;63859;51.064;4.580;2024-02-28T02:11:03;26.47;;;15.53;;
75261;SDS011;63859;51.064;4.580;2024-02-28T02:13:29;30.97;;;15.67;;
75261;SDS011;63859;51.064;4.580;2024-02-28T02:15:55;28.07;;;16.10;;
75261;SDS011;63859;51.064;4.580;2024-02-28T02:18:21;31.27;;;16.60;;
75261;SDS011;63859;51.064;4.580;2024-02-28T02:20:50;29.40;;;16.47;;
75261;SDS011;63859;51.064;4.580;2024-02-28T02:23:19;28.90;;;15.93;;
75261;SDS011;63859;51.064;4.580;2024-02-28T02:25:45;31.00;;;15.77;;
75261;SDS011;63859;51.064;4.580;2024-02-28T02:28:12;26.50;;;14.60;;
75261;SDS011;63859;51.064;4.580;2024-02-28T02:30:38;23.90;;;14.43;;
75261;SDS011;63859;51.064;4.580;2024-02-28T02:33:04;26.07;;;15.03;;
75261;SDS011;63859;51.064;4.580;2024-02-28T02:35:30;34.30;;;14.90;;
75261;SDS011;63859;51.064;4.580;2024-02-28T02:37:56;29.00;;;14.77;;
75261;SDS011;63859;51.064;4.580;2024-02-28T02:40:22;29.40;;;15.77;;
75261;SDS011;63859;51.064;4.580;2024-02-28T02:42:48;24.57;;;14.03;;
75261;SDS011;63859;51.064;4.580;2024-02-28T02:45:13;26.03;;;15.13;;
75261;SDS011;63859;51.064;4.580;2024-02-28T02:47:39;30.93;;;15.03;;
75261;SDS011;63859;51.064;4.580;2024-02-28T02:50:05;24.63;;;14.93;;
75261;SDS011;63859;51.064;4.580;2024-02-28T02:52:31;29.77;;;15.33;;
75261;SDS011;63859;51.064;4.580;2024-02-28T02:54:57;26.50;;;14.97;;
75261;SDS011;63859;51.064;4.580;2024-02-28T02:57:23;29.50;;;15.17;;
75261;SDS011;63859;51.064;4.580;2024-02-28T02:59:49;26.97;;;15.83;;
75261;SDS011;63859;51.064;4.580;2024-02-28T03:02:14;29.43;;;16.27;;
75261;SDS011;63859;51.064;4.580;2024-02-28T03:04:40;26.43;;;16.00;;
75261;SDS011;63859;51.064;4.580;2024-02-28T03:07:05;28.50;;;16.63;;
75261;SDS011;63859;51.064;4.580;2024-02-28T03:09:31;29.07;;;16.93;;
75261;SDS011;63859;51.064;4.580;2024-02-28T03:11:57;29.27;;;15.17;;
75261;SDS011;63859;51.064;4.580;2024-02-28T03:14:22;29.53;;;15.77;;
75261;SDS011;63859;51.064;4.580;2024-02-28T03:16:50;29.43;;;15.43;;
75261;SDS011;63859;51.064;4.580;2024-02-28T03:19:15;29.20;;;15.50;;
75261;SDS011;63859;51.064;4.580;2024-02-28T03:21:41;30.63;;;14.93;;
75261;SDS011;63859;51.064;4.580;2024-02-28T03:24:07;26.97;;;15.23;;
75261;SDS011;63859;51.064;4.580;2024-02-28T03:26:32;26.73;;;15.03;;
75261;SDS011;63859;51.064;4.580;2024-02-28T03:28:58;29.77;;;16.27;;
75261;SDS011;63859;51.064;4.580;2024-02-28T03:31:25;29.90;;;16.20;;
75261;SDS011;63859;51.064;4.580;2024-02-28T03:33:51;31.57;;;16.50;;
75261;SDS011;63859;51.064;4.580;2024-02-28T03:36:16;28.50;;;15.83;;
75261;SDS011;63859;51.064;4.580;2024-02-28T03:38:42;27.47;;;16.00;;
75261;SDS011;63859;51.064;4.580;2024-02-28T03:41:07;29.93;;;16.00;;
75261;SDS011;63859;51.064;4.580;2024-02-28T03:43:33;27.70;;;16.27;;
75261;SDS011;63859;51.064;4.580;2024-02-28T03:45:59;31.17;;;16.60;;
75261;SDS011;63859;51.064;4.580;2024-02-28T03:48:25;27.07;;;16.30;;
75261;SDS011;63859;51.064;4.580;2024-02-28T03:50:50;29.70;;;16.50;;
75261;SDS011;63859;51.064;4.580;2024-02-28T03:53:16;33.13;;;16.43;;
75261;SDS011;63859;51.064;4.580;2024-02-28T03:55:42;32.60;;;16.63;;
75261;SDS011;63859;51.064;4.580;2024-02-28T03:58:11;29.27;;;16.93;;
75261;SDS011;63859;51.064;4.580;2024-02-28T04:00:37;31.40;;;17.17;;
75261;SDS011;63859;51.064;4.580;2024-02-28T04:03:03;34.67;;;18.40;;
75261;SDS011;63859;51.064;4.580;2024-02-28T04:05:29;32.37;;;17.60;;
75261;SDS011;63859;51.064;4.580;2024-02-28T04:07:55;30.03;;;17.40;;
75261;SDS011;63859;51.064;4.580;2024-02-28T04:10:21;30.00;;;16.80;;
75261;SDS011;63859;51.064;4.580;2024-02-28T04:12:46;30.50;;;17.00;;
75261;SDS011;63859;51.064;4.580;2024-02-28T04:15:13;32.47;;;16.80;;
75261;SDS011;63859;51.064;4.580;2024-02-28T04:17:40;30.43;;;16.93;;
75261;SDS011;63859;51.064;4.580;2024-02-28T04:20:09;30.87;;;16.47;;
75261;SDS011;63859;51.064;4.580;2024-02-28T04:22:36;29.67;;;16.47;;
75261;SDS011;63859;51.064;4.580;2024-02-28T04:25:01;31.30;;;16.10;;
75261;SDS011;63859;51.064;4.580;2024-02-28T04:27:28;30.83;;;15.93;;
75261;SDS011;63859;51.064;4.580;2024-02-28T04:29:53;27.27;;;15.97;;
75261;SDS011;63859;51.064;4.580;2024-02-28T04:32:19;30.40;;;15.70;;
75261;SDS011;63859;51.064;4.580;2024-02-28T04:34:45;26.20;;;15.40;;
75261;SDS011;63859;51.064;4.580;2024-02-28T04:37:10;26.63;;;15.77;;
75261;SDS011;63859;51.064;4.580;2024-02-28T04:39:36;28.53;;;15.43;;
75261;SDS011;63859;51.064;4.580;2024-02-28T04:42:02;34.93;;;16.30;;
75261;SDS011;63859;51.064;4.580;2024-02-28T04:44:27;28.37;;;15.40;;
75261;SDS011;63859;51.064;4.580;2024-02-28T04:46:53;29.23;;;14.87;;
75261;SDS011;63859;51.064;4.580;2024-02-28T04:49:19;29.63;;;16.27;;
75261;SDS011;63859;51.064;4.580;2024-02-28T04:51:45;31.33;;;15.93;;
75261;SDS011;63859;51.064;4.580;2024-02-28T04:54:10;34.60;;;16.13;;
75261;SDS011;63859;51.064;4.580;2024-02-28T04:56:39;28.03;;;15.90;;
75261;SDS011;63859;51.064;4.580;2024-02-28T04:59:06;29.77;;;15.60;;
75261;SDS011;63859;51.064;4.580;2024-02-28T05:01:32;31.40;;;15.93;;
75261;SDS011;63859;51.064;4.580;2024-02-28T05:04:00;25.50;;;15.70;;
75261;SDS011;63859;51.064;4.580;2024-02-28T05:06:25;27.27;;;15.93;;
75261;SDS011;63859;51.064;4.580;2024-02-28T05:08:51;30.23;;;16.60;;
75261;SDS011;63859;51.064;4.580;2024-02-28T05:11:17;38.37;;;16.70;;
75261;SDS011;63859;51.064;4.580;2024-02-28T05:13:42;33.50;;;16.73;;
75261;SDS011;63859;51.064;4.580;2024-02-28T05:16:14;34.93;;;16.63;;
75261;SDS011;63859;51.064;4.580;2024-02-28T05:18:40;31.57;;;16.40;;
75261;SDS011;63859;51.064;4.580;2024-02-28T05:21:06;33.07;;;16.33;;
75261;SDS011;63859;51.064;4.580;2024-02-28T05:23:32;34.53;;;17.53;;
75261;SDS011;63859;51.064;4.580;2024-02-28T05:25:58;32.50;;;16.70;;
75261;SDS011;63859;51.064;4.580;2024-02-28T05:28:28;37.30;;;16.70;;
75261;SDS011;63859;51.064;4.580;2024-02-28T05:30:55;28.73;;;16.17;;
75261;SDS011;63859;51.064;4.580;2024-02-28T05:33:21;34.43;;;18.30;;
75261;SDS011;63859;51.064;4.580;2024-02-28T05:35:46;35.43;;;17.50;;
75261;SDS011;63859;51.064;4.580;2024-02-28T05:38:12;34.37;;;16.80;;
75261;SDS011;63859;51.064;4.580;2024-02-28T05:40:38;34.63;;;17.30;;
75261;SDS011;63859;51.064;4.580;2024-02-28T05:43:05;37.23;;;17.47;;
75261;SDS011;63859;51.064;4.580;2024-02-28T05:45:31;32.07;;;16.80;;
75261;SDS011;63859;51.064;4.580;2024-02-28T05:47:57;35.83;;;17.67;;
75261;SDS011;63859;51.064;4.580;2024-02-28T05:50:22;35.47;;;17.37;;
75261;SDS011;63859;51.064;4.580;2024-02-28T05:52:48;34.30;;;17.53;;
75261;SDS011;63859;51.064;4.580;2024-02-28T05:55:14;37.30;;;17.77;;
75261;SDS011;63859;51.064;4.580;2024-02-28T05:57:39;38.70;;;18.73;;
75261;SDS011;63859;51.064;4.580;2024-02-28T06:00:05;38.07;;;17.60;;
75261;SDS011;63859;51.064;4.580;2024-02-28T06:02:35;36.97;;;18.67;;
75261;SDS011;63859;51.064;4.580;2024-02-28T06:05:02;42.33;;;19.63;;
75261;SDS011;63859;51.064;4.580;2024-02-28T06:07:28;34.73;;;18.03;;
75261;SDS011;63859;51.064;4.580;2024-02-28T06:09:53;42.23;;;18.20;;
75261;SDS011;63859;51.064;4.580;2024-02-28T06:12:19;34.50;;;17.87;;
75261;SDS011;63859;51.064;4.580;2024-02-28T06:14:45;39.10;;;17.17;;
75261;SDS011;63859;51.064;4.580;2024-02-28T06:17:10;40.87;;;18.77;;
75261;SDS011;63859;51.064;4.580;2024-02-28T06:19:36;43.03;;;18.23;;
75261;SDS011;63859;51.064;4.580;2024-02-28T06:22:03;37.77;;;17.47;;
75261;SDS011;63859;51.064;4.580;2024-02-28T06:24:29;38.23;;;17.93;;
75261;SDS011;63859;51.064;4.580;2024-02-28T06:26:54;32.77;;;17.67;;
75261;SDS011;63859;51.064;4.580;2024-02-28T06:29:20;41.53;;;18.17;;
75261;SDS011;63859;51.064;4.580;2024-02-28T06:31:53;36.27;;;18.37;;
75261;SDS011;63859;51.064;4.580;2024-02-28T06:34:20;35.50;;;17.30;;
75261;SDS011;63859;51.064;4.580;2024-02-28T06:36:47;40.90;;;17.67;;
75261;SDS011;63859;51.064;4.580;2024-02-28T06:39:13;41.63;;;17.70;;
75261;SDS011;63859;51.064;4.580;2024-02-28T06:41:40;34.60;;;16.43;;
75261;SDS011;63859;51.064;4.580;2024-02-28T06:44:05;32.90;;;16.33;;
75261;SDS011;63859;51.064;4.580;2024-02-28T06:46:32;34.43;;;16.50;;
75261;SDS011;63859;51.064;4.580;2024-02-28T06:48:58;36.97;;;17.73;;
75261;SDS011;63859;51.064;4.580;2024-02-28T06:51:23;38.23;;;18.17;;
75261;SDS011;63859;51.064;4.580;2024-02-28T06:53:49;41.13;;;17.60;;
75261;SDS011;63859;51.064;4.580;2024-02-28T06:56:15;38.93;;;17.83;;
75261;SDS011;63859;51.064;4.580;2024-02-28T06:58:40;32.70;;;17.80;;
75261;SDS011;63859;51.064;4.580;2024-02-28T07:01:06;37.97;;;18.13;;
75261;SDS011;63859;51.064;4.580;2024-02-28T07:03:32;40.87;;;17.73;;
75261;SDS011;63859;51.064;4.580;2024-02-28T07:05:57;33.20;;;17.73;;
75261;SDS011;63859;51.064;4.580;2024-02-28T07:08:23;36.77;;;17.57;;
75261;SDS011;63859;51.064;4.580;2024-02-28T07:10:49;35.40;;;17.50;;
75261;SDS011;63859;51.064;4.580;2024-02-28T07:13:18;39.67;;;19.10;;
75261;SDS011;63859;51.064;4.580;2024-02-28T07:15:45;41.53;;;18.77;;
75261;SDS011;63859;51.064;4.580;2024-02-28T07:18:11;58.57;;;19.30;;
75261;SDS011;63859;51.064;4.580;2024-02-28T07:20:37;50.97;;;19.60;;
75261;SDS011;63859;51.064;4.580;2024-02-28T07:23:03;73.93;;;20.53;;
75261;SDS011;63859;51.064;4.580;2024-02-28T07:25:28;40.53;;;18.60;;
75261;SDS011;63859;51.064;4.580;2024-02-28T07:27:56;45.80;;;19.13;;
75261;SDS011;63859;51.064;4.580;2024-02-28T07:30:24;41.77;;;18.83;;
75261;SDS011;63859;51.064;4.580;2024-02-28T07:32:49;41.37;;;19.10;;
75261;SDS011;63859;51.064;4.580;2024-02-28T07:35:15;54.43;;;20.13;;
75261;SDS011;63859;51.064;4.580;2024-02-28T07:37:41;42.43;;;19.17;;
75261;SDS011;63859;51.064;4.580;2024-02-28T07:40:07;43.10;;;19.60;;
75261;SDS011;63859;51.064;4.580;2024-02-28T07:42:33;37.40;;;18.70;;
75261;SDS011;63859;51.064;4.580;2024-02-28T07:45:00;37.57;;;18.47;;
75261;SDS011;63859;51.064;4.580;2024-02-28T07:47:26;37.60;;;18.07;;
75261;SDS011;63859;51.064;4.580;2024-02-28T07:49:51;37.43;;;18.93;;
75261;SDS011;63859;51.064;4.580;2024-02-28T07:52:18;39.90;;;18.20;;
75261;SDS011;63859;51.064;4.580;2024-02-28T07:54:44;42.83;;;19.73;;
75261;SDS011;63859;51.064;4.580;2024-02-28T07:57:10;52.93;;;19.30;;
75261;SDS011;63859;51.064;4.580;2024-02-28T07:59:40;34.30;;;17.67;;
75261;SDS011;63859;51.064;4.580;2024-02-28T08:02:07;42.50;;;20.30;;
75261;SDS011;63859;51.064;4.580;2024-02-28T08:04:33;43.83;;;19.67;;
75261;SDS011;63859;51.064;4.580;2024-02-28T08:06:59;41.87;;;18.93;;
75261;SDS011;63859;51.064;4.580;2024-02-28T08:09:25;38.80;;;18.60;;
75261;SDS011;63859;51.064;4.580;2024-02-28T08:11:51;41.23;;;17.80;;
75261;SDS011;63859;51.064;4.580;2024-02-28T08:14:16;38.50;;;18.47;;
75261;SDS011;63859;51.064;4.580;2024-02-28T08:16:42;48.63;;;18.33;;
75261;SDS011;63859;51.064;4.580;2024-02-28T08:19:08;43.33;;;18.73;;
75261;SDS011;63859;51.064;4.580;2024-02-28T08:21:34;38.47;;;18.83;;
75261;SDS011;63859;51.064;4.580;2024-02-28T08:24:00;43.00;;;19.93;;
75261;SDS011;63859;51.064;4.580;2024-02-28T08:26:29;41.40;;;19.20;;
75261;SDS011;63859;51.064;4.580;2024-02-28T08:28:55;50.47;;;19.67;;
75261;SDS011;63859;51.064;4.580;2024-02-28T08:31:21;45.70;;;19.33;;
75261;SDS011;63859;51.064;4.580;2024-02-28T08:33:46;44.43;;;19.43;;
75261;SDS011;63859;51.064;4.580;2024-02-28T08:36:12;42.13;;;20.30;;
75261;SDS011;63859;51.064;4.580;2024-02-28T08:38:38;46.13;;;20.17;;
75261;SDS011;63859;51.064;4.580;2024-02-28T08:41:04;49.40;;;20.97;;
75261;SDS011;63859;51.064;4.580;2024-02-28T08:43:30;40.93;;;20.00;;
75261;SDS011;63859;51.064;4.580;2024-02-28T08:45:55;48.73;;;23.73;;
75261;SDS011;63859;51.064;4.580;2024-02-28T08:48:21;43.23;;;20.27;;
75261;SDS011;63859;51.064;4.580;2024-02-28T08:50:48;45.07;;;19.03;;
75261;SDS011;63859;51.064;4.580;2024-02-28T08:53:14;45.10;;;19.77;;
75261;SDS011;63859;51.064;4.580;2024-02-28T08:55:39;54.00;;;20.90;;
75261;SDS011;63859;51.064;4.580;2024-02-28T08:58:05;46.90;;;21.07;;
75261;SDS011;63859;51.064;4.580;2024-02-28T09:00:31;50.17;;;21.50;;
75261;SDS011;63859;51.064;4.580;2024-02-28T09:02:57;52.87;;;21.30;;
75261;SDS011;63859;51.064;4.580;2024-02-28T09:05:23;42.63;;;19.87;;
75261;SDS011;63859;51.064;4.580;2024-02-28T09:07:49;53.33;;;21.90;;
75261;SDS011;63859;51.064;4.580;2024-02-28T09:10:16;60.10;;;22.13;;
75261;SDS011;63859;51.064;4.580;2024-02-28T09:12:49;51.80;;;20.73;;
75261;SDS011;63859;51.064;4.580;2024-02-28T09:15:15;60.67;;;23.77;;
75261;SDS011;63859;51.064;4.580;2024-02-28T09:17:40;45.90;;;21.47;;
75261;SDS011;63859;51.064;4.580;2024-02-28T09:20:06;52.50;;;22.00;;
75261;SDS011;63859;51.064;4.580;2024-02-28T09:22:33;50.93;;;22.53;;
75261;SDS011;63859;51.064;4.580;2024-02-28T09:25:00;56.93;;;22.50;;
75261;SDS011;63859;51.064;4.580;2024-02-28T09:27:29;52.67;;;22.80;;
75261;SDS011;63859;51.064;4.580;2024-02-28T09:29:55;58.57;;;23.07;;
75261;SDS011;63859;51.064;4.580;2024-02-28T09:32:21;45.93;;;21.20;;
75261;SDS011;63859;51.064;4.580;2024-02-28T09:34:47;52.80;;;22.10;;
75261;SDS011;63859;51.064;4.580;2024-02-28T09:37:13;48.27;;;21.87;;
75261;SDS011;63859;51.064;4.580;2024-02-28T09:39:39;52.50;;;20.37;;
75261;SDS011;63859;51.064;4.580;2024-02-28T09:42:06;53.17;;;21.33;;
75261;SDS011;63859;51.064;4.580;2024-02-28T09:44:33;51.23;;;21.53;;
75261;SDS011;63859;51.064;4.580;2024-02-28T09:46:59;48.70;;;21.33;;
75261;SDS011;63859;51.064;4.580;2024-02-28T09:49:25;54.00;;;21.57;;
75261;SDS011;63859;51.064;4.580;2024-02-28T09:51:52;51.90;;;21.43;;
75261;SDS011;63859;51.064;4.580;2024-02-28T09:54:18;53.20;;;20.30;;
75261;SDS011;63859;51.064;4.580;2024-02-28T09:56:44;49.20;;;20.33;;
75261;SDS011;63859;51.064;4.580;2024-02-28T09:59:11;52.30;;;20.60;;
75261;SDS011;63859;51.064;4.580;2024-02-28T10:01:42;46.13;;;19.77;;
75261;SDS011;63859;51.064;4.580;2024-02-28T10:04:12;49.90;;;20.27;;
75261;SDS011;63859;51.064;4.580;2024-02-28T10:06:41;53.37;;;20.43;;
75261;SDS011;63859;51.064;4.580;2024-02-28T10:09:07;56.57;;;20.37;;
75261;SDS011;63859;51.064;4.580;2024-02-28T10:11:33;51.27;;;20.20;;
75261;SDS011;63859;51.064;4.580;2024-02-28T10:14:00;51.60;;;19.83;;
75261;SDS011;63859;51.064;4.580;2024-02-28T10:16:26;53.87;;;20.60;;
75261;SDS011;63859;51.064;4.580;2024-02-28T10:18:52;48.73;;;19.73;;
75261;SDS011;63859;51.064;4.580;2024-02-28T10:21:18;49.90;;;19.80;;
75261;SDS011;63859;51.064;4.580;2024-02-28T10:23:44;50.20;;;19.60;;
75261;SDS011;63859;51.064;4.580;2024-02-28T10:26:11;51.93;;;20.30;;
75261;SDS011;63859;51.064;4.580;2024-02-28T10:28:38;52.20;;;19.90;;
75261;SDS011;63859;51.064;4.580;2024-02-28T10:31:07;44.13;;;18.93;;
75261;SDS011;63859;51.064;4.580;2024-02-28T10:33:33;46.67;;;19.67;;
75261;SDS011;63859;51.064;4.580;2024-02-28T10:36:01;48.60;;;18.37;;
75261;SDS011;63859;51.064;4.580;2024-02-28T10:38:28;51.17;;;18.80;;
75261;SDS011;63859;51.064;4.580;2024-02-28T10:40:55;44.67;;;17.80;;
75261;SDS011;63859;51.064;4.580;2024-02-28T10:43:22;44.83;;;18.60;;
75261;SDS011;63859;51.064;4.580;2024-02-28T10:45:51;47.43;;;18.07;;
75261;SDS011;63859;51.064;4.580;2024-02-28T10:48:17;52.87;;;19.63;;
75261;SDS011;63859;51.064;4.580;2024-02-28T10:50:44;43.90;;;16.17;;
75261;SDS011;63859;51.064;4.580;2024-02-28T10:53:13;42.73;;;16.67;;
75261;SDS011;63859;51.064;4.580;2024-02-28T10:55:42;47.37;;;16.87;;
75261;SDS011;63859;51.064;4.580;2024-02-28T10:58:12;41.30;;;17.53;;
75261;SDS011;63859;51.064;4.580;2024-02-28T11:00:40;52.37;;;18.03;;
75261;SDS011;63859;51.064;4.580;2024-02-28T11:03:09;49.53;;;17.13;;
75261;SDS011;63859;51.064;4.580;2024-02-28T11:05:39;47.03;;;16.70;;
75261;SDS011;63859;51.064;4.580;2024-02-28T11:08:09;41.43;;;16.97;;
75261;SDS011;63859;51.064;4.580;2024-02-28T11:10:35;44.90;;;17.60;;
75261;SDS011;63859;51.064;4.580;2024-02-28T11:13:05;44.73;;;15.70;;
75261;SDS011;63859;51.064;4.580;2024-02-28T11:15:31;43.10;;;15.10;;
75261;SDS011;63859;51.064;4.580;2024-02-28T11:18:06;43.53;;;15.33;;
75261;SDS011;63859;51.064;4.580;2024-02-28T11:20:33;43.10;;;15.97;;
75261;SDS011;63859;51.064;4.580;2024-02-28T11:22:59;40.40;;;15.13;;
75261;SDS011;63859;51.064;4.580;2024-02-28T11:25:25;36.87;;;14.13;;
75261;SDS011;63859;51.064;4.580;2024-02-28T11:27:51;43.07;;;14.17;;
75261;SDS011;63859;51.064;4.580;2024-02-28T11:30:17;38.77;;;14.53;;
75261;SDS011;63859;51.064;4.580;2024-02-28T11:32:44;33.30;;;15.00;;
75261;SDS011;63859;51.064;4.580;2024-02-28T11:35:10;41.57;;;14.43;;
75261;SDS011;63859;51.064;4.580;2024-02-28T11:37:37;51.67;;;14.63;;
75261;SDS011;63859;51.064;4.580;2024-02-28T11:40:09;42.17;;;14.63;;
75261;SDS011;63859;51.064;4.580;2024-02-28T11:42:35;44.43;;;15.13;;
75261;SDS011;63859;51.064;4.580;2024-02-28T11:45:01;39.03;;;13.67;;
75261;SDS011;63859;51.064;4.580;2024-02-28T11:47:30;34.70;;;13.37;;
75261;SDS011;63859;51.064;4.580;2024-02-28T11:50:00;34.23;;;13.27;;
75261;SDS011;63859;51.064;4.580;2024-02-28T11:52:27;36.70;;;13.60;;
75261;SDS011;63859;51.064;4.580;2024-02-28T11:54:55;36.30;;;14.03;;
75261;SDS011;63859;51.064;4.580;2024-02-28T11:57:20;36.97;;;13.80;;
75261;SDS011;63859;51.064;4.580;2024-02-28T11:59:47;32.10;;;12.87;;
75261;SDS011;63859;51.064;4.580;2024-02-28T12:02:14;33.63;;;13.97;;
75261;SDS011;63859;51.064;4.580;2024-02-28T12:04:44;31.90;;;12.70;;
75261;SDS011;63859;51.064;4.580;2024-02-28T12:07:10;32.60;;;12.67;;
75261;SDS011;63859;51.064;4.580;2024-02-28T12:09:37;26.67;;;12.80;;
75261;SDS011;63859;51.064;4.580;2024-02-28T12:12:04;21.13;;;10.70;;
75261;SDS011;63859;51.064;4.580;2024-02-28T12:14:31;31.33;;;11.07;;
75261;SDS011;63859;51.064;4.580;2024-02-28T12:17:01;25.13;;;10.07;;
75261;SDS011;63859;51.064;4.580;2024-02-28T12:19:27;24.23;;;10.07;;
75261;SDS011;63859;51.064;4.580;2024-02-28T12:21:53;23.43;;;10.40;;
75261;SDS011;63859;51.064;4.580;2024-02-28T12:24:19;29.70;;;11.43;;
75261;SDS011;63859;51.064;4.580;2024-02-28T12:26:45;29.60;;;11.10;;
75261;SDS011;63859;51.064;4.580;2024-02-28T12:29:11;23.37;;;10.57;;
75261;SDS011;63859;51.064;4.580;2024-02-28T12:31:38;36.50;;;10.63;;
75261;SDS011;63859;51.064;4.580;2024-02-28T12:34:05;20.67;;;8.83;;
75261;SDS011;63859;51.064;4.580;2024-02-28T12:36:31;21.90;;;9.13;;
75261;SDS011;63859;51.064;4.580;2024-02-28T12:38:57;21.10;;;8.83;;
75261;SDS011;63859;51.064;4.580;2024-02-28T12:41:25;20.10;;;9.37;;
75261;SDS011;63859;51.064;4.580;2024-02-28T12:43:51;17.23;;;7.73;;
75261;SDS011;63859;51.064;4.580;2024-02-28T12:46:17;18.17;;;8.20;;
75261;SDS011;63859;51.064;4.580;2024-02-28T12:48:43;25.50;;;8.93;;
75261;SDS011;63859;51.064;4.580;2024-02-28T12:51:57;20.93;;;8.63;;
75261;SDS011;63859;51.064;4.580;2024-02-28T12:54:02;20.80;;;9.17;;
75261;SDS011;63859;51.064;4.580;2024-02-28T12:56:28;15.53;;;7.20;;
75261;SDS011;63859;51.064;4.580;2024-02-28T12:58:53;17.80;;;8.33;;
75261;SDS011;63859;51.064;4.580;2024-02-28T13:01:19;18.40;;;8.30;;
75261;SDS011;63859;51.064;4.580;2024-02-28T13:03:45;19.20;;;8.63;;
75261;SDS011;63859;51.064;4.580;2024-02-28T13:06:10;18.23;;;7.90;;
75261;SDS011;63859;51.064;4.580;2024-02-28T13:08:36;20.63;;;8.10;;
75261;SDS011;63859;51.064;4.580;2024-02-28T13:11:02;21.90;;;7.70;;
75261;SDS011;63859;51.064;4.580;2024-02-28T13:13:28;18.57;;;7.67;;
75261;SDS011;63859;51.064;4.580;2024-02-28T13:15:54;17.50;;;7.97;;
75261;SDS011;63859;51.064;4.580;2024-02-28T13:18:19;11.03;;;6.73;;
75261;SDS011;63859;51.064;4.580;2024-02-28T13:20:45;16.33;;;7.00;;
75261;SDS011;63859;51.064;4.580;2024-02-28T13:23:11;15.17;;;7.07;;
75261;SDS011;63859;51.064;4.580;2024-02-28T13:25:37;13.60;;;6.80;;
75261;SDS011;63859;51.064;4.580;2024-02-28T13:28:02;11.90;;;6.57;;
75261;SDS011;63859;51.064;4.580;2024-02-28T13:30:28;19.73;;;7.10;;
75261;SDS011;63859;51.064;4.580;2024-02-28T13:32:54;14.63;;;7.20;;
75261;SDS011;63859;51.064;4.580;2024-02-28T13:35:20;14.53;;;6.80;;
75261;SDS011;63859;51.064;4.580;2024-02-28T13:37:45;14.53;;;6.93;;
75261;SDS011;63859;51.064;4.580;2024-02-28T13:40:11;12.97;;;6.80;;
75261;SDS011;63859;51.064;4.580;2024-02-28T13:42:37;18.37;;;6.40;;
75261;SDS011;63859;51.064;4.580;2024-02-28T13:45:03;11.60;;;7.27;;
75261;SDS011;63859;51.064;4.580;2024-02-28T13:47:32;13.87;;;7.10;;
75261;SDS011;63859;51.064;4.580;2024-02-28T13:49:59;19.67;;;7.60;;
75261;SDS011;63859;51.064;4.580;2024-02-28T13:52:25;16.13;;;7.93;;
75261;SDS011;63859;51.064;4.580;2024-02-28T13:54:51;15.53;;;7.67;;
75261;SDS011;63859;51.064;4.580;2024-02-28T13:57:17;18.10;;;6.60;;
75261;SDS011;63859;51.064;4.580;2024-02-28T13:59:42;14.70;;;6.83;;
75261;SDS011;63859;51.064;4.580;2024-02-28T14:02:11;14.77;;;7.10;;
75261;SDS011;63859;51.064;4.580;2024-02-28T14:04:37;15.77;;;6.43;;
75261;SDS011;63859;51.064;4.580;2024-02-28T14:07:03;12.37;;;6.37;;
75261;SDS011;63859;51.064;4.580;2024-02-28T14:09:29;10.57;;;5.83;;
75261;SDS011;63859;51.064;4.580;2024-02-28T14:11:55;14.97;;;6.17;;
75261;SDS011;63859;51.064;4.580;2024-02-28T14:14:20;14.40;;;5.53;;
75261;SDS011;63859;51.064;4.580;2024-02-28T14:16:46;12.87;;;6.33;;
75261;SDS011;63859;51.064;4.580;2024-02-28T14:19:12;10.03;;;5.40;;